sensor_id;sensor_type;location;lat;lon;timestamp;temperature;humidity
30399;DHT22;17195;50.838;7.214;2023-02-28T00:00:23;-1.40;99.90
30399;DHT22;17195;50.838;7.214;2023-02-28T00:02:49;-1.50;99.90
30399;DHT22;17195;50.838;7.214;2023-02-28T00:05:18;-1.50;99.90
30399;DHT22;17195;50.838;7.214;2023-02-28T00:07:44;-1.50;99.90
30399;DHT22;17195;50.838;7.214;2023-02-28T00:10:11;-1.50;99.90
30399;DHT22;17195;50.838;7.214;2023-02-28T00:12:38;-1.60;99.90
30399;DHT22;17195;50.838;7.214;2023-02-28T00:15:10;-1.70;99.90
30399;DHT22;17195;50.838;7.214;2023-02-28T00:17:37;-1.70;99.90
30399;DHT22;17195;50.838;7.214;2023-02-28T00:20:04;-1.70;99.90
30399;DHT22;17195;50.838;7.214;2023-02-28T00:22:31;-1.80;99.90
30399;DHT22;17195;50.838;7.214;2023-02-28T00:24:57;-1.80;99.90
30399;DHT22;17195;50.838;7.214;2023-02-28T00:27:22;-1.80;99.90
30399;DHT22;17195;50.838;7.214;2023-02-28T00:29:48;-1.90;99.90
30399;DHT22;17195;50.838;7.214;2023-02-28T00:32:13;-1.90;99.90
30399;DHT22;17195;50.838;7.214;2023-02-28T00:34:39;-1.90;99.90
30399;DHT22;17195;50.838;7.214;2023-02-28T00:37:09;-1.90;99.90
30399;DHT22;17195;50.838;7.214;2023-02-28T00:39:37;-1.80;99.90
30399;DHT22;17195;50.838;7.214;2023-02-28T00:42:04;-1.80;99.90
30399;DHT22;17195;50.838;7.214;2023-02-28T00:44:30;-1.80;99.90
30399;DHT22;17195;50.838;7.214;2023-02-28T00:46:56;-1.80;99.90
30399;DHT22;17195;50.838;7.214;2023-02-28T00:49:23;-1.80;99.90
30399;DHT22;17195;50.838;7.214;2023-02-28T00:51:49;-1.70;99.90
30399;DHT22;17195;50.838;7.214;2023-02-28T00:54:15;-1.80;99.90
30399;DHT22;17195;50.838;7.214;2023-02-28T00:56:41;-1.80;99.90
30399;DHT22;17195;50.838;7.214;2023-02-28T00:59:06;-1.80;99.90
30399;DHT22;17195;50.838;7.214;2023-02-28T01:01:32;-1.80;99.90
30399;DHT22;17195;50.838;7.214;2023-02-28T01:03:57;-1.90;99.90
30399;DHT22;17195;50.838;7.214;2023-02-28T01:06:23;-1.90;99.90
30399;DHT22;17195;50.838;7.214;2023-02-28T01:08:49;-1.90;99.90
30399;DHT22;17195;50.838;7.214;2023-02-28T01:11:16;-1.90;99.90
30399;DHT22;17195;50.838;7.214;2023-02-28T01:13:44;-1.90;99.90
30399;DHT22;17195;50.838;7.214;2023-02-28T01:16:09;-1.90;99.90
30399;DHT22;17195;50.838;7.214;2023-02-28T01:18:36;-2.00;99.90
30399;DHT22;17195;50.838;7.214;2023-02-28T01:21:07;-2.00;99.90
30399;DHT22;17195;50.838;7.214;2023-02-28T01:23:33;-2.00;99.90
30399;DHT22;17195;50.838;7.214;2023-02-28T01:26:07;-2.10;99.90
30399;DHT22;17195;50.838;7.214;2023-02-28T01:28:33;-2.00;99.90
30399;DHT22;17195;50.838;7.214;2023-02-28T01:30:59;-2.00;99.90
30399;DHT22;17195;50.838;7.214;2023-02-28T01:33:25;-2.00;99.90
30399;DHT22;17195;50.838;7.214;2023-02-28T01:36:05;-2.10;99.90
30399;DHT22;17195;50.838;7.214;2023-02-28T01:38:33;-2.10;99.90
30399;DHT22;17195;50.838;7.214;2023-02-28T01:40:59;-2.20;99.90
30399;DHT22;17195;50.838;7.214;2023-02-28T01:43:27;-2.10;99.90
30399;DHT22;17195;50.838;7.214;2023-02-28T01:45:54;-2.20;99.90
30399;DHT22;17195;50.838;7.214;2023-02-28T01:48:27;-2.20;99.90
30399;DHT22;17195;50.838;7.214;2023-02-28T01:50:54;-2.20;99.90
30399;DHT22;17195;50.838;7.214;2023-02-28T01:53:29;-2.20;99.90
30399;DHT22;17195;50.838;7.214;2023-02-28T01:55:56;-2.20;99.90
30399;DHT22;17195;50.838;7.214;2023-02-28T01:58:22;-2.20;99.90
30399;DHT22;17195;50.838;7.214;2023-02-28T02:00:48;-2.30;99.90
30399;DHT22;17195;50.838;7.214;2023-02-28T02:03:16;-2.30;99.90
30399;DHT22;17195;50.838;7.214;2023-02-28T02:05:45;-2.30;99.90
30399;DHT22;17195;50.838;7.214;2023-02-28T02:08:22;-2.30;99.90
30399;DHT22;17195;50.838;7.214;2023-02-28T02:10:51;-2.40;99.90
30399;DHT22;17195;50.838;7.214;2023-02-28T02:18:53;-2.40;99.90
30399;DHT22;17195;50.838;7.214;2023-02-28T02:27:34;-2.50;99.90
30399;DHT22;17195;50.838;7.214;2023-02-28T02:30:30;-2.50;99.90
30399;DHT22;17195;50.838;7.214;2023-02-28T02:33:23;-2.50;99.90
30399;DHT22;17195;50.838;7.214;2023-02-28T02:42:13;-2.60;99.90
30399;DHT22;17195;50.838;7.214;2023-02-28T02:44:20;-2.70;99.90
30399;DHT22;17195;50.838;7.214;2023-02-28T02:46:48;-2.70;99.90
30399;DHT22;17195;50.838;7.214;2023-02-28T02:49:30;-2.70;99.90
30399;DHT22;17195;50.838;7.214;2023-02-28T02:52:01;-2.70;99.90
30399;DHT22;17195;50.838;7.214;2023-02-28T02:54:31;-2.60;99.90
30399;DHT22;17195;50.838;7.214;2023-02-28T02:57:03;-2.60;99.90
30399;DHT22;17195;50.838;7.214;2023-02-28T02:59:30;-2.60;99.90
30399;DHT22;17195;50.838;7.214;2023-02-28T03:01:59;-2.50;99.90
30399;DHT22;17195;50.838;7.214;2023-02-28T03:04:29;-2.50;99.90
30399;DHT22;17195;50.838;7.214;2023-02-28T03:06:56;-2.50;99.90
30399;DHT22;17195;50.838;7.214;2023-02-28T03:09:22;-2.50;99.90
30399;DHT22;17195;50.838;7.214;2023-02-28T03:11:51;-2.50;99.90
30399;DHT22;17195;50.838;7.214;2023-02-28T03:25:53;-2.50;99.90
30399;DHT22;17195;50.838;7.214;2023-02-28T03:28:43;-2.50;99.90
30399;DHT22;17195;50.838;7.214;2023-02-28T03:31:25;-2.50;99.90
30399;DHT22;17195;50.838;7.214;2023-02-28T03:34:10;-2.50;99.90
30399;DHT22;17195;50.838;7.214;2023-02-28T03:36:43;-2.50;99.90
30399;DHT22;17195;50.838;7.214;2023-02-28T03:39:15;-2.50;99.90
30399;DHT22;17195;50.838;7.214;2023-02-28T03:41:57;-2.50;99.90
30399;DHT22;17195;50.838;7.214;2023-02-28T03:44:41;-2.50;99.90
30399;DHT22;17195;50.838;7.214;2023-02-28T03:47:14;-2.50;99.90
30399;DHT22;17195;50.838;7.214;2023-02-28T03:49:46;-2.60;99.90
30399;DHT22;17195;50.838;7.214;2023-02-28T03:52:14;-2.60;99.90
30399;DHT22;17195;50.838;7.214;2023-02-28T03:54:48;-2.60;99.90
30399;DHT22;17195;50.838;7.214;2023-02-28T04:00:04;-2.70;99.90
30399;DHT22;17195;50.838;7.214;2023-02-28T04:02:32;-2.70;99.90
30399;DHT22;17195;50.838;7.214;2023-02-28T04:04:57;-2.70;99.90
30399;DHT22;17195;50.838;7.214;2023-02-28T04:07:29;-2.70;99.90
30399;DHT22;17195;50.838;7.214;2023-02-28T04:09:55;-2.80;99.90
30399;DHT22;17195;50.838;7.214;2023-02-28T04:12:21;-2.80;99.90
30399;DHT22;17195;50.838;7.214;2023-02-28T04:14:48;-2.80;99.90
30399;DHT22;17195;50.838;7.214;2023-02-28T04:17:14;-2.80;99.90
30399;DHT22;17195;50.838;7.214;2023-02-28T04:19:39;-2.70;99.90
30399;DHT22;17195;50.838;7.214;2023-02-28T04:22:05;-2.70;99.90
30399;DHT22;17195;50.838;7.214;2023-02-28T04:24:31;-2.70;99.90
30399;DHT22;17195;50.838;7.214;2023-02-28T04:26:57;-2.60;99.90
30399;DHT22;17195;50.838;7.214;2023-02-28T04:29:28;-2.60;99.90
30399;DHT22;17195;50.838;7.214;2023-02-28T04:31:54;-2.60;99.90
30399;DHT22;17195;50.838;7.214;2023-02-28T04:34:21;-2.50;99.90
30399;DHT22;17195;50.838;7.214;2023-02-28T04:36:48;-2.50;99.90
30399;DHT22;17195;50.838;7.214;2023-02-28T04:39:19;-2.50;99.90
30399;DHT22;17195;50.838;7.214;2023-02-28T04:41:45;-2.50;99.90
30399;DHT22;17195;50.838;7.214;2023-02-28T04:44:11;-2.50;99.90
30399;DHT22;17195;50.838;7.214;2023-02-28T04:46:37;-2.50;99.90
30399;DHT22;17195;50.838;7.214;2023-02-28T04:49:02;-2.50;99.90
30399;DHT22;17195;50.838;7.214;2023-02-28T04:51:28;-2.50;99.90
30399;DHT22;17195;50.838;7.214;2023-02-28T04:53:54;-2.50;99.90
30399;DHT22;17195;50.838;7.214;2023-02-28T04:56:20;-2.50;99.90
30399;DHT22;17195;50.838;7.214;2023-02-28T04:58:46;-2.50;99.90
30399;DHT22;17195;50.838;7.214;2023-02-28T05:01:23;-2.50;99.90
30399;DHT22;17195;50.838;7.214;2023-02-28T05:03:50;-2.50;99.90
30399;DHT22;17195;50.838;7.214;2023-02-28T05:06:16;-2.50;99.90
30399;DHT22;17195;50.838;7.214;2023-02-28T05:08:42;-2.60;99.90
30399;DHT22;17195;50.838;7.214;2023-02-28T05:11:17;-2.60;99.90
30399;DHT22;17195;50.838;7.214;2023-02-28T05:13:44;-2.60;99.90
30399;DHT22;17195;50.838;7.214;2023-02-28T05:16:09;-2.70;99.90
30399;DHT22;17195;50.838;7.214;2023-02-28T05:18:35;-2.70;99.90
30399;DHT22;17195;50.838;7.214;2023-02-28T05:21:01;-2.70;99.90
30399;DHT22;17195;50.838;7.214;2023-02-28T05:23:27;-2.80;99.90
30399;DHT22;17195;50.838;7.214;2023-02-28T05:25:53;-2.80;99.90
30399;DHT22;17195;50.838;7.214;2023-02-28T05:28:19;-2.80;99.90
30399;DHT22;17195;50.838;7.214;2023-02-28T05:30:45;-2.80;99.90
30399;DHT22;17195;50.838;7.214;2023-02-28T05:33:11;-2.80;99.90
30399;DHT22;17195;50.838;7.214;2023-02-28T05:35:41;-2.80;99.90
30399;DHT22;17195;50.838;7.214;2023-02-28T05:38:07;-2.90;99.90
30399;DHT22;17195;50.838;7.214;2023-02-28T05:40:33;-2.90;99.90
30399;DHT22;17195;50.838;7.214;2023-02-28T05:42:59;-2.90;99.90
30399;DHT22;17195;50.838;7.214;2023-02-28T05:45:24;-2.90;99.90
30399;DHT22;17195;50.838;7.214;2023-02-28T05:47:53;-2.90;99.90
30399;DHT22;17195;50.838;7.214;2023-02-28T05:50:19;-3.00;99.90
30399;DHT22;17195;50.838;7.214;2023-02-28T05:52:44;-3.00;99.90
30399;DHT22;17195;50.838;7.214;2023-02-28T05:55:13;-3.10;99.90
30399;DHT22;17195;50.838;7.214;2023-02-28T05:57:39;-3.10;99.90
30399;DHT22;17195;50.838;7.214;2023-02-28T06:00:05;-3.10;99.90
30399;DHT22;17195;50.838;7.214;2023-02-28T06:02:31;-3.10;99.90
30399;DHT22;17195;50.838;7.214;2023-02-28T06:04:56;-3.10;99.90
30399;DHT22;17195;50.838;7.214;2023-02-28T06:07:22;-3.10;99.90
30399;DHT22;17195;50.838;7.214;2023-02-28T06:09:47;-3.10;99.90
30399;DHT22;17195;50.838;7.214;2023-02-28T06:12:13;-3.20;99.90
30399;DHT22;17195;50.838;7.214;2023-02-28T06:14:39;-3.20;99.90
30399;DHT22;17195;50.838;7.214;2023-02-28T06:17:04;-3.20;99.90
30399;DHT22;17195;50.838;7.214;2023-02-28T06:19:30;-3.30;99.90
30399;DHT22;17195;50.838;7.214;2023-02-28T06:21:56;-3.30;99.90
30399;DHT22;17195;50.838;7.214;2023-02-28T06:24:24;-3.30;99.90
30399;DHT22;17195;50.838;7.214;2023-02-28T06:26:50;-3.30;99.90
30399;DHT22;17195;50.838;7.214;2023-02-28T06:29:16;-3.30;99.90
30399;DHT22;17195;50.838;7.214;2023-02-28T06:31:44;-3.30;99.90
30399;DHT22;17195;50.838;7.214;2023-02-28T06:34:10;-3.30;99.90
30399;DHT22;17195;50.838;7.214;2023-02-28T06:36:40;-3.30;99.90
30399;DHT22;17195;50.838;7.214;2023-02-28T06:39:07;-3.30;99.90
30399;DHT22;17195;50.838;7.214;2023-02-28T06:41:33;-3.30;99.90
30399;DHT22;17195;50.838;7.214;2023-02-28T06:44:04;-3.30;99.90
30399;DHT22;17195;50.838;7.214;2023-02-28T06:46:31;-3.30;99.90
30399;DHT22;17195;50.838;7.214;2023-02-28T06:48:56;-3.30;99.90
30399;DHT22;17195;50.838;7.214;2023-02-28T06:51:22;-3.30;99.90
30399;DHT22;17195;50.838;7.214;2023-02-28T06:53:47;-3.20;99.90
30399;DHT22;17195;50.838;7.214;2023-02-28T06:56:14;-3.20;99.90
30399;DHT22;17195;50.838;7.214;2023-02-28T06:58:40;-3.20;99.90
30399;DHT22;17195;50.838;7.214;2023-02-28T07:01:07;-3.10;99.90
30399;DHT22;17195;50.838;7.214;2023-02-28T07:03:34;-3.00;99.90
30399;DHT22;17195;50.838;7.214;2023-02-28T07:06:00;-3.00;99.90
30399;DHT22;17195;50.838;7.214;2023-02-28T07:08:26;-2.90;99.90
30399;DHT22;17195;50.838;7.214;2023-02-28T07:10:55;-2.80;99.90
30399;DHT22;17195;50.838;7.214;2023-02-28T07:13:22;-2.70;99.90
30399;DHT22;17195;50.838;7.214;2023-02-28T07:15:59;-2.60;99.90
30399;DHT22;17195;50.838;7.214;2023-02-28T07:18:25;-2.40;99.90
30399;DHT22;17195;50.838;7.214;2023-02-28T07:20:51;-2.30;99.90
30399;DHT22;17195;50.838;7.214;2023-02-28T07:23:17;-2.10;99.90
30399;DHT22;17195;50.838;7.214;2023-02-28T07:25:43;-2.00;99.90
30399;DHT22;17195;50.838;7.214;2023-02-28T07:28:09;-1.90;99.90
30399;DHT22;17195;50.838;7.214;2023-02-28T07:30:35;-1.70;99.90
30399;DHT22;17195;50.838;7.214;2023-02-28T07:33:00;-1.60;99.90
30399;DHT22;17195;50.838;7.214;2023-02-28T07:35:26;-1.50;99.90
30399;DHT22;17195;50.838;7.214;2023-02-28T07:37:51;-1.40;99.90
30399;DHT22;17195;50.838;7.214;2023-02-28T07:40:17;-1.30;99.90
30399;DHT22;17195;50.838;7.214;2023-02-28T07:42:43;-1.20;99.90
30399;DHT22;17195;50.838;7.214;2023-02-28T07:45:10;-1.10;99.90
30399;DHT22;17195;50.838;7.214;2023-02-28T07:47:37;-0.90;99.90
30399;DHT22;17195;50.838;7.214;2023-02-28T07:50:04;-0.80;99.90
30399;DHT22;17195;50.838;7.214;2023-02-28T07:52:30;-0.70;99.90
30399;DHT22;17195;50.838;7.214;2023-02-28T07:54:55;-0.60;99.90
30399;DHT22;17195;50.838;7.214;2023-02-28T07:57:21;-0.40;99.90
30399;DHT22;17195;50.838;7.214;2023-02-28T07:59:47;-0.30;99.90
30399;DHT22;17195;50.838;7.214;2023-02-28T08:02:14;-0.20;99.90
30399;DHT22;17195;50.838;7.214;2023-02-28T08:04:40;0.00;99.90
30399;DHT22;17195;50.838;7.214;2023-02-28T08:07:06;0.10;99.90
30399;DHT22;17195;50.838;7.214;2023-02-28T08:09:31;0.20;99.90
30399;DHT22;17195;50.838;7.214;2023-02-28T08:11:57;0.40;99.90
30399;DHT22;17195;50.838;7.214;2023-02-28T08:14:23;0.50;99.90
30399;DHT22;17195;50.838;7.214;2023-02-28T08:16:48;0.70;99.90
30399;DHT22;17195;50.838;7.214;2023-02-28T08:19:14;0.80;99.90
30399;DHT22;17195;50.838;7.214;2023-02-28T08:21:39;1.00;99.90
30399;DHT22;17195;50.838;7.214;2023-02-28T08:24:05;1.10;99.90
30399;DHT22;17195;50.838;7.214;2023-02-28T08:26:31;1.30;99.90
30399;DHT22;17195;50.838;7.214;2023-02-28T08:28:57;1.40;99.90
30399;DHT22;17195;50.838;7.214;2023-02-28T08:31:22;1.50;99.90
30399;DHT22;17195;50.838;7.214;2023-02-28T08:33:48;1.60;99.90
30399;DHT22;17195;50.838;7.214;2023-02-28T08:36:16;1.70;99.90
30399;DHT22;17195;50.838;7.214;2023-02-28T08:38:42;1.90;99.90
30399;DHT22;17195;50.838;7.214;2023-02-28T08:41:10;1.90;99.90
30399;DHT22;17195;50.838;7.214;2023-02-28T08:43:37;2.00;99.90
30399;DHT22;17195;50.838;7.214;2023-02-28T08:46:04;2.10;99.90
30399;DHT22;17195;50.838;7.214;2023-02-28T08:48:31;2.20;99.90
30399;DHT22;17195;50.838;7.214;2023-02-28T08:51:05;2.30;99.90
30399;DHT22;17195;50.838;7.214;2023-02-28T08:53:32;2.30;99.90
30399;DHT22;17195;50.838;7.214;2023-02-28T08:55:59;2.40;99.90
30399;DHT22;17195;50.838;7.214;2023-02-28T08:58:25;2.50;99.90
30399;DHT22;17195;50.838;7.214;2023-02-28T09:00:51;2.60;99.90
30399;DHT22;17195;50.838;7.214;2023-02-28T09:03:17;2.70;99.90
30399;DHT22;17195;50.838;7.214;2023-02-28T09:06:00;2.70;99.90
30399;DHT22;17195;50.838;7.214;2023-02-28T09:08:28;2.70;99.90
30399;DHT22;17195;50.838;7.214;2023-02-28T09:10:54;2.90;99.90
30399;DHT22;17195;50.838;7.214;2023-02-28T09:13:22;3.00;99.90
30399;DHT22;17195;50.838;7.214;2023-02-28T09:15:47;3.00;99.90
30399;DHT22;17195;50.838;7.214;2023-02-28T09:18:13;3.00;99.90
30399;DHT22;17195;50.838;7.214;2023-02-28T09:20:40;3.10;99.90
30399;DHT22;17195;50.838;7.214;2023-02-28T09:23:07;3.10;99.90
30399;DHT22;17195;50.838;7.214;2023-02-28T09:25:33;3.20;99.90
30399;DHT22;17195;50.838;7.214;2023-02-28T09:27:58;3.30;99.90
30399;DHT22;17195;50.838;7.214;2023-02-28T09:30:24;3.30;99.80
30399;DHT22;17195;50.838;7.214;2023-02-28T09:32:50;3.40;99.80
30399;DHT22;17195;50.838;7.214;2023-02-28T09:35:19;3.40;99.30
30399;DHT22;17195;50.838;7.214;2023-02-28T09:37:46;3.40;99.30
30399;DHT22;17195;50.838;7.214;2023-02-28T09:40:12;3.50;98.90
30399;DHT22;17195;50.838;7.214;2023-02-28T09:42:40;3.60;98.60
30399;DHT22;17195;50.838;7.214;2023-02-28T09:45:33;3.70;98.30
30399;DHT22;17195;50.838;7.214;2023-02-28T09:48:01;3.70;97.50
30399;DHT22;17195;50.838;7.214;2023-02-28T09:50:30;3.70;97.00
30399;DHT22;17195;50.838;7.214;2023-02-28T09:52:59;3.80;97.00
30399;DHT22;17195;50.838;7.214;2023-02-28T09:55:33;3.80;96.60
30399;DHT22;17195;50.838;7.214;2023-02-28T09:58:00;3.90;96.50
30399;DHT22;17195;50.838;7.214;2023-02-28T10:00:36;4.10;95.90
30399;DHT22;17195;50.838;7.214;2023-02-28T10:03:32;4.20;95.00
30399;DHT22;17195;50.838;7.214;2023-02-28T10:06:14;4.30;94.40
30399;DHT22;17195;50.838;7.214;2023-02-28T10:09:01;4.40;93.80
30399;DHT22;17195;50.838;7.214;2023-02-28T10:11:27;4.40;92.80
30399;DHT22;17195;50.838;7.214;2023-02-28T10:19:32;4.60;91.80
30399;DHT22;17195;50.838;7.214;2023-02-28T10:22:11;4.60;91.10
30399;DHT22;17195;50.838;7.214;2023-02-28T10:24:42;4.60;91.70
30399;DHT22;17195;50.838;7.214;2023-02-28T10:27:17;4.60;91.00
30399;DHT22;17195;50.838;7.214;2023-02-28T10:29:46;4.60;90.30
30399;DHT22;17195;50.838;7.214;2023-02-28T10:32:18;4.70;90.30
30399;DHT22;17195;50.838;7.214;2023-02-28T10:34:50;4.70;89.10
30399;DHT22;17195;50.838;7.214;2023-02-28T10:37:16;4.80;88.50
30399;DHT22;17195;50.838;7.214;2023-02-28T10:39:46;4.90;89.50
30399;DHT22;17195;50.838;7.214;2023-02-28T10:42:26;4.90;89.50
30399;DHT22;17195;50.838;7.214;2023-02-28T10:45:22;5.10;87.40
30399;DHT22;17195;50.838;7.214;2023-02-28T10:47:53;5.20;88.20
30399;DHT22;17195;50.838;7.214;2023-02-28T10:50:31;5.30;87.30
30399;DHT22;17195;50.838;7.214;2023-02-28T11:01:39;5.60;83.30
30399;DHT22;17195;50.838;7.214;2023-02-28T11:07:05;5.70;83.40
30399;DHT22;17195;50.838;7.214;2023-02-28T11:09:39;5.60;84.00
30399;DHT22;17195;50.838;7.214;2023-02-28T11:12:07;5.80;83.60
30399;DHT22;17195;50.838;7.214;2023-02-28T11:14:46;5.90;82.70
30399;DHT22;17195;50.838;7.214;2023-02-28T11:17:23;6.10;82.70
30399;DHT22;17195;50.838;7.214;2023-02-28T11:19:58;6.30;82.60
30399;DHT22;17195;50.838;7.214;2023-02-28T11:22:26;6.30;82.20
30399;DHT22;17195;50.838;7.214;2023-02-28T11:24:56;6.60;80.80
30399;DHT22;17195;50.838;7.214;2023-02-28T11:29:59;6.80;79.00
30399;DHT22;17195;50.838;7.214;2023-02-28T11:32:27;6.90;80.00
30399;DHT22;17195;50.838;7.214;2023-02-28T11:35:30;7.10;80.00
30399;DHT22;17195;50.838;7.214;2023-02-28T11:37:57;7.30;78.80
30399;DHT22;17195;50.838;7.214;2023-02-28T11:46:38;7.60;76.80
30399;DHT22;17195;50.838;7.214;2023-02-28T11:49:11;7.50;76.60
30399;DHT22;17195;50.838;7.214;2023-02-28T11:51:54;7.50;76.60
30399;DHT22;17195;50.838;7.214;2023-02-28T11:54:51;7.40;74.70
30399;DHT22;17195;50.838;7.214;2023-02-28T11:57:56;7.60;75.80
30399;DHT22;17195;50.838;7.214;2023-02-28T12:05:47;7.60;76.10
30399;DHT22;17195;50.838;7.214;2023-02-28T12:11:39;7.50;73.20
30399;DHT22;17195;50.838;7.214;2023-02-28T12:19:39;7.70;73.50
30399;DHT22;17195;50.838;7.214;2023-02-28T12:22:29;8.00;71.90
30399;DHT22;17195;50.838;7.214;2023-02-28T12:25:19;8.10;71.40
30399;DHT22;17195;50.838;7.214;2023-02-28T12:27:47;8.10;71.50
30399;DHT22;17195;50.838;7.214;2023-02-28T12:30:24;8.10;71.40
30399;DHT22;17195;50.838;7.214;2023-02-28T12:33:05;8.00;71.80
30399;DHT22;17195;50.838;7.214;2023-02-28T12:35:36;8.00;72.20
30399;DHT22;17195;50.838;7.214;2023-02-28T12:38:17;8.00;71.00
30399;DHT22;17195;50.838;7.214;2023-02-28T12:41:00;8.00;71.00
30399;DHT22;17195;50.838;7.214;2023-02-28T12:43:37;7.90;71.10
30399;DHT22;17195;50.838;7.214;2023-02-28T12:46:16;8.00;74.20
30399;DHT22;17195;50.838;7.214;2023-02-28T12:48:47;8.00;74.40
30399;DHT22;17195;50.838;7.214;2023-02-28T12:51:15;8.10;74.40
30399;DHT22;17195;50.838;7.214;2023-02-28T12:58:43;8.20;73.10
30399;DHT22;17195;50.838;7.214;2023-02-28T13:06:28;8.20;73.50
30399;DHT22;17195;50.838;7.214;2023-02-28T13:09:31;8.10;72.60
30399;DHT22;17195;50.838;7.214;2023-02-28T13:11:54;8.20;73.80
30399;DHT22;17195;50.838;7.214;2023-02-28T13:24:52;8.20;72.50
30399;DHT22;17195;50.838;7.214;2023-02-28T13:30:59;8.30;71.60
30399;DHT22;17195;50.838;7.214;2023-02-28T13:33:34;8.30;72.10
30399;DHT22;17195;50.838;7.214;2023-02-28T13:38:55;8.50;72.90
30399;DHT22;17195;50.838;7.214;2023-02-28T13:44:05;8.70;72.60
30399;DHT22;17195;50.838;7.214;2023-02-28T13:46:32;8.80;71.80
30399;DHT22;17195;50.838;7.214;2023-02-28T13:57:30;9.20;72.00
30399;DHT22;17195;50.838;7.214;2023-02-28T14:00:17;9.40;70.30
30399;DHT22;17195;50.838;7.214;2023-02-28T14:05:36;9.50;68.30
30399;DHT22;17195;50.838;7.214;2023-02-28T14:08:15;9.30;69.00
30399;DHT22;17195;50.838;7.214;2023-02-28T14:10:43;9.40;69.50
30399;DHT22;17195;50.838;7.214;2023-02-28T14:16:01;9.60;69.20
30399;DHT22;17195;50.838;7.214;2023-02-28T14:18:35;9.80;68.00
30399;DHT22;17195;50.838;7.214;2023-02-28T14:21:22;9.80;68.10
30399;DHT22;17195;50.838;7.214;2023-02-28T14:27:34;9.70;68.40
30399;DHT22;17195;50.838;7.214;2023-02-28T14:30:49;9.80;67.60
30399;DHT22;17195;50.838;7.214;2023-02-28T14:33:23;9.80;66.50
30399;DHT22;17195;50.838;7.214;2023-02-28T14:38:58;10.20;66.30
30399;DHT22;17195;50.838;7.214;2023-02-28T14:41:37;10.10;66.50
30399;DHT22;17195;50.838;7.214;2023-02-28T14:44:24;10.20;66.20
30399;DHT22;17195;50.838;7.214;2023-02-28T14:47:14;10.20;65.70
30399;DHT22;17195;50.838;7.214;2023-02-28T14:49:45;10.40;65.10
30399;DHT22;17195;50.838;7.214;2023-02-28T14:52:15;10.30;64.70
30399;DHT22;17195;50.838;7.214;2023-02-28T14:54:43;10.30;64.50
30399;DHT22;17195;50.838;7.214;2023-02-28T14:57:42;10.50;64.50
30399;DHT22;17195;50.838;7.214;2023-02-28T15:00:16;10.60;64.50
30399;DHT22;17195;50.838;7.214;2023-02-28T15:02:43;10.80;63.70
30399;DHT22;17195;50.838;7.214;2023-02-28T15:07:47;10.90;63.70
30399;DHT22;17195;50.838;7.214;2023-02-28T15:10:22;10.90;63.20
30399;DHT22;17195;50.838;7.214;2023-02-28T15:13:02;11.20;63.60
30399;DHT22;17195;50.838;7.214;2023-02-28T15:20:53;11.40;61.20
30399;DHT22;17195;50.838;7.214;2023-02-28T15:23:21;11.30;60.70
30399;DHT22;17195;50.838;7.214;2023-02-28T15:25:47;11.40;60.70
30399;DHT22;17195;50.838;7.214;2023-02-28T15:28:18;11.50;60.00
30399;DHT22;17195;50.838;7.214;2023-02-28T15:33:24;11.60;60.00
30399;DHT22;17195;50.838;7.214;2023-02-28T15:35:50;11.80;60.70
30399;DHT22;17195;50.838;7.214;2023-02-28T15:40:44;11.80;58.90
30399;DHT22;17195;50.838;7.214;2023-02-28T15:43:14;11.80;58.80
30399;DHT22;17195;50.838;7.214;2023-02-28T15:48:20;12.10;58.70
30399;DHT22;17195;50.838;7.214;2023-02-28T15:51:07;12.20;56.70
30399;DHT22;17195;50.838;7.214;2023-02-28T15:53:47;12.30;57.80
30399;DHT22;17195;50.838;7.214;2023-02-28T15:56:23;12.30;57.20
30399;DHT22;17195;50.838;7.214;2023-02-28T15:58:52;12.50;57.60
30399;DHT22;17195;50.838;7.214;2023-02-28T16:01:24;12.70;56.10
30399;DHT22;17195;50.838;7.214;2023-02-28T16:03:53;13.00;56.10
30399;DHT22;17195;50.838;7.214;2023-02-28T16:08:48;14.50;54.20
30399;DHT22;17195;50.838;7.214;2023-02-28T16:11:16;14.40;54.60
30399;DHT22;17195;50.838;7.214;2023-02-28T16:13:42;14.80;53.00
30399;DHT22;17195;50.838;7.214;2023-02-28T16:16:07;14.60;51.90
30399;DHT22;17195;50.838;7.214;2023-02-28T16:18:33;13.80;52.00
30399;DHT22;17195;50.838;7.214;2023-02-28T16:20:58;13.10;52.90
30399;DHT22;17195;50.838;7.214;2023-02-28T16:23:24;12.50;54.50
30399;DHT22;17195;50.838;7.214;2023-02-28T16:25:50;12.00;55.50
30399;DHT22;17195;50.838;7.214;2023-02-28T16:28:20;11.50;55.50
30399;DHT22;17195;50.838;7.214;2023-02-28T16:30:51;10.90;56.50
30399;DHT22;17195;50.838;7.214;2023-02-28T16:33:17;10.40;58.30
30399;DHT22;17195;50.838;7.214;2023-02-28T16:35:42;9.80;58.20
30399;DHT22;17195;50.838;7.214;2023-02-28T16:38:08;9.40;59.50
30399;DHT22;17195;50.838;7.214;2023-02-28T16:40:34;9.30;60.50
30399;DHT22;17195;50.838;7.214;2023-02-28T16:43:05;9.10;61.40
30399;DHT22;17195;50.838;7.214;2023-02-28T16:45:32;8.80;61.80
30399;DHT22;17195;50.838;7.214;2023-02-28T16:47:57;8.50;62.20
30399;DHT22;17195;50.838;7.214;2023-02-28T16:50:24;8.40;63.30
30399;DHT22;17195;50.838;7.214;2023-02-28T16:52:50;8.10;63.50
30399;DHT22;17195;50.838;7.214;2023-02-28T16:55:18;8.00;64.80
30399;DHT22;17195;50.838;7.214;2023-02-28T16:57:45;7.70;64.60
30399;DHT22;17195;50.838;7.214;2023-02-28T17:00:13;7.50;65.70
30399;DHT22;17195;50.838;7.214;2023-02-28T17:02:38;7.40;66.60
30399;DHT22;17195;50.838;7.214;2023-02-28T17:05:04;7.10;66.70
30399;DHT22;17195;50.838;7.214;2023-02-28T17:07:30;7.00;67.40
30399;DHT22;17195;50.838;7.214;2023-02-28T17:09:56;6.80;68.20
30399;DHT22;17195;50.838;7.214;2023-02-28T17:12:21;6.60;68.80
30399;DHT22;17195;50.838;7.214;2023-02-28T17:14:47;6.50;69.60
30399;DHT22;17195;50.838;7.214;2023-02-28T17:17:18;6.30;69.40
30399;DHT22;17195;50.838;7.214;2023-02-28T17:19:45;6.10;70.10
30399;DHT22;17195;50.838;7.214;2023-02-28T17:22:10;6.00;70.90
30399;DHT22;17195;50.838;7.214;2023-02-28T17:24:36;5.90;72.10
30399;DHT22;17195;50.838;7.214;2023-02-28T17:27:02;5.70;72.60
30399;DHT22;17195;50.838;7.214;2023-02-28T17:29:28;5.60;73.10
30399;DHT22;17195;50.838;7.214;2023-02-28T17:31:53;5.40;74.20
30399;DHT22;17195;50.838;7.214;2023-02-28T17:34:19;5.20;75.20
30399;DHT22;17195;50.838;7.214;2023-02-28T17:36:49;5.10;76.20
30399;DHT22;17195;50.838;7.214;2023-02-28T17:39:16;5.00;77.30
30399;DHT22;17195;50.838;7.214;2023-02-28T17:41:50;4.70;77.30
30399;DHT22;17195;50.838;7.214;2023-02-28T17:44:17;4.70;78.20
30399;DHT22;17195;50.838;7.214;2023-02-28T17:46:43;4.50;78.70
30399;DHT22;17195;50.838;7.214;2023-02-28T17:49:09;4.40;79.90
30399;DHT22;17195;50.838;7.214;2023-02-28T17:51:35;4.30;80.80
30399;DHT22;17195;50.838;7.214;2023-02-28T17:54:01;4.10;81.20
30399;DHT22;17195;50.838;7.214;2023-02-28T17:56:26;3.90;81.70
30399;DHT22;17195;50.838;7.214;2023-02-28T17:58:54;3.80;82.20
30399;DHT22;17195;50.838;7.214;2023-02-28T18:01:20;3.70;82.90
30399;DHT22;17195;50.838;7.214;2023-02-28T18:03:47;3.60;83.90
30399;DHT22;17195;50.838;7.214;2023-02-28T18:06:19;3.50;84.50
30399;DHT22;17195;50.838;7.214;2023-02-28T18:08:46;3.40;85.10
30399;DHT22;17195;50.838;7.214;2023-02-28T18:11:12;3.20;85.80
30399;DHT22;17195;50.838;7.214;2023-02-28T18:13:48;3.20;87.20